• Join FlightAware (Why Join?)
  • Login
  • US Flag 
11:17AM EDT


 

Airport Tracker/Info


-or-


 

Live Flight TrackerFlight Track Log ✈ UAL33 ✈ 15-Aug-2013 ✈ RJAA / NRT - KLAX

Flight Track Log - Related Links

Times and Time Zones

All times are in EDT time to prevent confusion due to time zone crossing. See the UAL33 flight status page for this flight to view local times or setup timezone preferences in your user account.

Time Position Orientation Groundspeed Altitude Reporting Facility
EDT Latitude Longitude Course Direction KTS MPH feet Rate Location/Type
04:33AM 35.7450 140.3900 149° Southeast 160 184 1,100  Level FlightAware
04:33AM 35.7310 140.3990 152° Southeast 164 189 2,000 2,040 Climbing FlightAware
04:34AM 35.7150 140.4110 149° Southeast 171 197 2,700 1,740 Climbing FlightAware
04:34AM 35.7010 140.4210 150° Southeast 177 204 3,300 1,680 Climbing FlightAware
04:34AM 35.6920 140.4270 152° Southeast 184 212 3,600 1,080 Climbing FlightAware
04:35AM 35.6760 140.4390 149° Southeast 209 241 3,900 1,080 Climbing FlightAware
04:35AM 35.6540 140.4550 149° Southeast 239 275 4,400 1,320 Climbing FlightAware
04:35AM 35.6430 140.4630 149° Southeast 251 289 4,700 1,620 Climbing FlightAware
04:36AM 35.6220 140.4780 150° Southeast 271 312 5,300 2,100 Climbing FlightAware
04:36AM 35.6000 140.4940 149° Southeast 279 321 6,100 2,520 Climbing FlightAware
04:36AM 35.5840 140.5060 149° Southeast 281 323 6,700 2,640 Climbing FlightAware
04:36AM 35.5560 140.5260 150° Southeast 286 329 7,800 2,580 Climbing FlightAware
04:37AM 35.5360 140.5450 142° Southeast 287 330 8,600 2,100 Climbing FlightAware
04:37AM 35.5310 140.5560 119° Southeast 286 329 8,800 1,500 Climbing FlightAware
04:37AM 35.5280 140.5690 106° East 284 327 9,000 1,080 Climbing FlightAware
04:37AM 35.5260 140.5820 101° East 285 328 9,100 240 Climbing FlightAware
04:37AM 35.5250 140.6070 93° East 287 330 9,100  Level FlightAware
04:38AM 35.5220 140.6470 95° East 286 329 9,100  Level FlightAware
04:38AM 35.5200 140.6790 94° East 285 328 9,100  Level FlightAware
04:39AM 35.5180 140.7120 94° East 285 328 9,100 240 Level FlightAware
04:39AM 35.5160 140.7480 94° East 288 331 9,300 1,380 Climbing FlightAware
04:39AM 35.5120 140.8040 95° East 304 350 10,400 1,500 Climbing FlightAware
04:40AM 35.5080 140.8690 94° East 344 396 11,000 1,500 Climbing FlightAware
04:41AM 35.5030 140.9340 95° East 359 413 12,200 2,280 Climbing FlightAware
04:41AM 35.4980 141.0120 94° East 368 423 13,700 2,100 Climbing FlightAware
04:42AM 35.4920 141.0840 96° East 374 430 14,900 2,040 Climbing FlightAware
04:43AM 35.4700 141.1710 107° East 380 437 16,500 2,100 Climbing FlightAware
04:43AM 35.4470 141.2460 111° Southeast 390 449 17,700 1,920 Climbing FlightAware
04:44AM 35.4310 141.3090 107° East 398 458 18,600 1,860 Climbing FlightAware
04:44AM 35.4360 141.3820 85° East 399 459 19,700 1,800 Climbing FlightAware
04:45AM 35.4510 141.4570 76° East 405 466 20,700 1,620 Climbing FlightAware
04:45AM 35.4670 141.5370 76° East 418 481 21,600 1,560 Climbing FlightAware
04:46AM 35.4820 141.6170 77° East 426 490 22,500 1,620 Climbing FlightAware
04:46AM 35.4970 141.6950 77° East 433 498 23,400 1,620 Climbing FlightAware
04:47AM 35.5140 141.7850 77° East 441 507 24,400 1,500 Climbing FlightAware
04:48AM 35.5330 141.8840 77° East 448 516 25,400 1,260 Climbing FlightAware
04:48AM 35.5460 141.9510 77° East 454 522 26,000 1,320 Climbing FlightAware
04:49AM 35.5650 142.0520 77° East 462 532 26,900 1,320 Climbing FlightAware
04:50AM 35.5810 142.1360 77° East 467 537 27,600 1,500 Climbing FlightAware
04:50AM 35.6010 142.2420 77° East 472 543 28,600 1,560 Climbing FlightAware
04:51AM 35.6170 142.3330 78° East 477 549 29,400 1,200 Climbing FlightAware
04:51AM 35.6330 142.4160 77° East 482 555 30,000 1,080 Climbing FlightAware
04:52AM 35.6520 142.5180 77° East 488 562 30,700 660 Climbing FlightAware
04:52AM 35.6690 142.6130 78° East 490 564 30,900 1,080 Climbing FlightAware
04:53AM 35.6880 142.7160 77° East 497 572 32,100 960 Climbing FlightAware
04:54AM 35.7040 142.8050 77° East 497 572 32,100  Level FlightAware
04:54AM 35.7180 142.8900 79° East 497 572 32,100 1,380 Level FlightAware
04:55AM 35.7460 143.0350 77° East 514 592 33,800 1,800 Climbing FlightAware
04:55AM 35.7640 143.1360 78° East 519 597 34,300 1,020 Climbing FlightAware
04:56AM 35.7790 143.2190 77° East 517 595 34,900 1,260 Climbing FlightAware
04:57AM 35.8000 143.3360 77° East 512 589 35,800 1,200 Climbing FlightAware
04:57AM 35.8190 143.4420 78° East 508 585 36,500 1,020 Climbing FlightAware
04:58AM 35.8400 143.5630 78° East 505 581 37,200 660 Climbing FlightAware
04:59AM 35.8580 143.6670 78° East 504 580 37,500 480 Climbing FlightAware
05:00AM 35.8860 143.8300 78° East 502 578 38,000 300 Climbing FlightAware
05:00AM 35.9040 143.9370 78° East 502 578 38,000  Level FlightAware
05:01AM 35.9190 144.0300 79° East 502 578 38,000  Level FlightAware
05:01AM 35.9360 144.1370 79° East 503 579 38,000  Level FlightAware
05:02AM 35.9530 144.2330 78° East 503 579 38,000  Level FlightAware
05:03AM 35.9680 144.3190 78° East 503 579 38,000  Level FlightAware
05:03AM 35.9830 144.4080 78° East 503 579 38,000  Level FlightAware
05:04AM 35.9980 144.4940 78° East 503 579 38,000  Level FlightAware
05:05AM 36.0120 144.5800 79° East 503 579 38,000  Level FlightAware
05:05AM 36.0270 144.6660 78° East 503 579 38,000  Level FlightAware
05:06AM 36.0420 144.7520 78° East 503 579 38,000  Level FlightAware
05:06AM 36.0570 144.8380 78° East 503 579 38,000  Level FlightAware
05:07AM 36.0720 144.9270 78° East 503 579 38,000  Level FlightAware
05:08AM 36.0870 145.0130 78° East 503 579 38,000  Level FlightAware
05:08AM 36.1020 145.0990 78° East 503 579 38,000  Level FlightAware
05:09AM 36.1160 145.1850 79° East 503 579 38,000  Level FlightAware
05:09AM 36.1310 145.2720 78° East 503 579 38,000  Level FlightAware
05:10AM 36.1460 145.3600 78° East 503 579 38,000  Level FlightAware
05:11AM 36.1610 145.4470 78° East 503 579 38,000  Level FlightAware
05:11AM 36.1760 145.5330 78° East 503 579 38,000  Level FlightAware
05:14AM 36.3377 145.8636 59° Northeast  Level Estimated
05:15AM 36.4068 146.0058 59° Northeast  Level Estimated
05:16AM 36.4757 146.1482 59° Northeast  Level Estimated
05:17AM 36.5444 146.2908 59° Northeast  Level Estimated
05:18AM 36.6129 146.4337 59° Northeast  Level Estimated
05:19AM 36.6813 146.5768 59° Northeast  Level Estimated
05:20AM 36.7495 146.7202 59° Northeast  Level Estimated
05:21AM 36.8175 146.8639 59° Northeast  Level Estimated
05:22AM 36.8853 147.0078 59° Northeast  Level Estimated
05:23AM 36.9530 147.1519 60° Northeast  Level Estimated
05:24AM 37.0205 147.2964 60° Northeast  Level Estimated
05:25AM 37.0878 147.4410 60° Northeast  Level Estimated
05:26AM 37.1550 147.5860 60° Northeast  Level Estimated
05:27AM 37.2220 147.7312 60° Northeast  Level Estimated
05:28AM 37.2887 147.8766 60° Northeast  Level Estimated
05:29AM 37.3554 148.0223 60° Northeast  Level Estimated
05:30AM 37.4218 148.1683 60° Northeast  Level Estimated
05:31AM 37.4881 148.3145 60° Northeast  Level Estimated
05:32AM 37.5541 148.4610 60° Northeast  Level Estimated
05:33AM 37.6200 148.6077 60° Northeast  Level Estimated
05:34AM 37.6857 148.7547 61° Northeast  Level Estimated
05:35AM 37.7513 148.9020 61° Northeast  Level Estimated
05:36AM 37.8166 149.0495 61° Northeast  Level Estimated
05:37AM 37.8818 149.1973 61° Northeast  Level Estimated
05:38AM 37.9468 149.3453 61° Northeast  Level Estimated
05:39AM 38.0116 149.4936 61° Northeast  Level Estimated
05:40AM 38.0761 149.6422 61° Northeast  Level Estimated
05:41AM 38.1406 149.7910 61° Northeast  Level Estimated
05:42AM 38.2048 149.9401 61° Northeast  Level Estimated
05:43AM 38.2688 150.0895 61° Northeast  Level Estimated
05:44AM 38.3327 150.2391 61° Northeast  Level Estimated
05:45AM 38.3964 150.3890 62° Northeast  Level Estimated
05:46AM 38.4598 150.5391 62° Northeast  Level Estimated
05:47AM 38.5231 150.6895 62° Northeast  Level Estimated
05:48AM 38.5862 150.8402 62° Northeast  Level Estimated
05:49AM 38.6491 150.9911 62° Northeast  Level Estimated
05:50AM 38.7118 151.1423 62° Northeast  Level Estimated
05:51AM 38.7743 151.2938 62° Northeast  Level Estimated
05:52AM 38.8366 151.4455 62° Northeast  Level Estimated
05:53AM 38.8987 151.5975 62° Northeast  Level Estimated
05:54AM 38.9606 151.7498 62° Northeast  Level Estimated
05:55AM 39.0223 151.9023 62° Northeast  Level Estimated
05:56AM 39.0838 152.0551 63° Northeast  Level Estimated
05:57AM 39.1451 152.2082 63° Northeast  Level Estimated
05:58AM 39.2062 152.3615 63° Northeast  Level Estimated
05:59AM 39.2672 152.5151 63° Northeast  Level Estimated
06:00AM 39.3279 152.6690 63° Northeast  Level Estimated
06:01AM 39.3884 152.8231 63° Northeast  Level Estimated
06:02AM 39.4487 152.9775 63° Northeast  Level Estimated
06:03AM 39.5088 153.1322 63° Northeast  Level Estimated
06:04AM 39.5687 153.2871 63° Northeast  Level Estimated
06:05AM 39.6385 153.4686 63° Northeast  Level Estimated
06:06AM 39.7080 153.6506 64° Northeast  Level Estimated
06:07AM 39.7772 153.8329 64° Northeast  Level Estimated
06:08AM 39.8461 154.0155 64° Northeast  Level Estimated
06:09AM 39.9148 154.1985 64° Northeast  Level Estimated
06:10AM 39.9831 154.3819 64° Northeast  Level Estimated
06:11AM 40.0512 154.5656 64° Northeast  Level Estimated
06:12AM 40.1190 154.7498 64° Northeast  Level Estimated
06:13AM 40.1865 154.9342 64° Northeast  Level Estimated
06:14AM 40.2537 155.1191 64° Northeast  Level Estimated
06:15AM 40.3206 155.3043 65° Northeast  Level Estimated
06:16AM 40.3872 155.4899 65° Northeast  Level Estimated
06:17AM 40.4535 155.6759 65° Northeast  Level Estimated
06:18AM 40.5195 155.8622 65° Northeast  Level Estimated
06:19AM 40.5852 156.0488 65° Northeast  Level Estimated
06:20AM 40.6506 156.2359 65° Northeast  Level Estimated
06:21AM 40.7157 156.4233 65° Northeast  Level Estimated
06:22AM 40.7805 156.6111 65° Northeast  Level Estimated
06:23AM 40.8450 156.7993 66° East  Level Estimated
06:24AM 40.9092 156.9878 66° East  Level Estimated
06:25AM 40.9731 157.1766 66° East  Level Estimated
06:26AM 41.0367 157.3659 66° East  Level Estimated
06:27AM 41.1000 157.5555 66° East  Level Estimated
06:28AM 41.1629 157.7455 66° East  Level Estimated
06:29AM 41.2256 157.9358 66° East  Level Estimated
06:30AM 41.2879 158.1265 66° East  Level Estimated
06:31AM 41.3499 158.3176 67° East  Level Estimated
06:32AM 41.4116 158.5090 67° East  Level Estimated
06:33AM 41.4730 158.7008 67° East  Level Estimated
06:34AM 41.5340 158.8929 67° East  Level Estimated
06:35AM 41.5857 159.0567 67° East  Level Estimated
06:36AM 41.6372 159.2207 67° East  Level Estimated
06:37AM 41.6884 159.3850 67° East  Level Estimated
06:38AM 41.7394 159.5495 67° East  Level Estimated
06:39AM 41.7901 159.7143 68° East  Level Estimated
06:40AM 41.8407 159.8793 68° East  Level Estimated
06:41AM 41.8909 160.0446 68° East  Level Estimated
06:42AM 41.9410 160.2102 68° East  Level Estimated
06:43AM 41.9908 160.3761 68° East  Level Estimated
06:44AM 42.0404 160.5421 68° East  Level Estimated
06:45AM 42.0897 160.7085 68° East  Level Estimated
06:46AM 42.1388 160.8751 68° East  Level Estimated
06:47AM 42.1876 161.0420 68° East  Level Estimated
06:48AM 42.2362 161.2091 69° East  Level Estimated
06:49AM 42.2846 161.3765 69° East  Level Estimated
06:50AM 42.3327 161.5441 69° East  Level Estimated
06:51AM 42.3806 161.7120 69° East  Level Estimated
06:52AM 42.4282 161.8801 69° East  Level Estimated
06:53AM 42.4756 162.0485 69° East  Level Estimated
06:54AM 42.5227 162.2172 69° East  Level Estimated
06:55AM 42.5696 162.3861 69° East  Level Estimated
06:56AM 42.6162 162.5553 69° East  Level Estimated
06:57AM 42.6626 162.7247 70° East  Level Estimated
06:58AM 42.7088 162.8944 70° East  Level Estimated
06:59AM 42.7547 163.0643 70° East  Level Estimated
07:00AM 42.8003 163.2345 70° East  Level Estimated
07:01AM 42.8457 163.4049 70° East  Level Estimated
07:02AM 42.8908 163.5755 70° East  Level Estimated
07:03AM 42.9357 163.7465 70° East  Level Estimated
07:04AM 42.9803 163.9176 70° East  Level Estimated
07:05AM 43.0247 164.0891 70° East  Level Estimated
07:06AM 43.0688 164.2607 71° East  Level Estimated
07:07AM 43.1127 164.4326 71° East  Level Estimated
07:08AM 43.1562 164.6048 71° East  Level Estimated
07:09AM 43.1996 164.7772 71° East  Level Estimated
07:10AM 43.2427 164.9498 71° East  Level Estimated
07:11AM 43.2855 165.1227 71° East  Level Estimated
07:12AM 43.3280 165.2959 71° East  Level Estimated
07:13AM 43.3703 165.4692 71° East  Level Estimated
07:13AM 41.5833 164.8000 68° East 549 632 39,000  Level Oakland Oceanic (ODAPS)
07:14AM 43.4124 165.6429 72° East  Level Estimated
07:14AM 41.8833 165.8000 69° East 549 632 39,000  Level Oakland Oceanic (ODAPS)
07:15AM 43.4541 165.8167 72° East  Level Estimated
07:16AM 43.4956 165.9908 72° East  Level Estimated
07:17AM 43.5369 166.1652 72° East  Level Estimated
07:18AM 43.5779 166.3397 72° East  Level Estimated
07:19AM 42.1353 166.6985 69° East 549 632 39,000  Level FlightAware Transoceanic
07:20AM 42.1888 166.8902 69° East 549 632 39,000  Level FlightAware Transoceanic
07:21AM 42.2179 166.9846 70° East 549 632 39,000  Level FlightAware Transoceanic
07:22AM 42.2725 167.1833 70° East 549 632 39,000  Level FlightAware Transoceanic
07:23AM 42.3268 167.3823 70° East 549 632 39,000  Level FlightAware Transoceanic
07:24AM 42.3806 167.5816 70° East 549 632 39,000  Level FlightAware Transoceanic
07:24AM 42.3333 167.4333 70° East 547 629 39,000  Level Oakland Oceanic (ODAPS)
07:25AM 42.4342 167.7813 70° East 549 632 39,000  Level FlightAware Transoceanic
07:26AM 42.4874 167.9813 70° East 549 632 39,000  Level FlightAware Transoceanic
07:27AM 42.5402 168.1817 70° East 549 632 39,000  Level FlightAware Transoceanic
07:28AM 42.5927 168.3824 71° East 549 632 39,000  Level FlightAware Transoceanic
07:29AM 42.6449 168.5834 71° East 549 632 39,000  Level FlightAware Transoceanic
07:30AM 42.6994 168.8085 71° East 547 629 39,000  Level FlightAware Transoceanic
07:31AM 42.7504 169.0063 71° East 547 629 39,000  Level FlightAware Transoceanic
07:32AM 42.8010 169.2044 71° East 547 629 39,000  Level FlightAware Transoceanic
07:33AM 42.8513 169.4028 71° East 547 629 39,000  Level FlightAware Transoceanic
07:34AM 42.9012 169.6016 71° East 547 629 39,000  Level FlightAware Transoceanic
07:35AM 42.9508 169.8006 71° East 547 629 39,000  Level FlightAware Transoceanic
07:36AM 43.0000 170.0000 71° East 547 629 39,000  Level FlightAware Transoceanic
07:37AM 43.0504 170.2011 71° East 547 629 39,000  Level FlightAware Transoceanic
07:37AM 43.0167 170.0833 71° East 533 613 39,000  Level Oakland Oceanic (ODAPS)
07:37AM 43.0500 170.2000 71° East 559 643 39,000  Level Oakland Oceanic (ODAPS)
07:38AM 43.1004 170.4026 71° East 547 629 39,000  Level FlightAware Transoceanic
07:39AM 43.1501 170.6044 71° East 547 629 39,000  Level FlightAware Transoceanic
07:40AM 43.1994 170.8065 72° East 547 629 39,000  Level FlightAware Transoceanic
07:41AM 43.2483 171.0090 72° East 547 629 39,000  Level FlightAware Transoceanic
07:42AM 43.2969 171.2117 72° East 547 629 39,000  Level FlightAware Transoceanic
07:42AM 43.2500 170.9833 72° East 539 620 39,000  Level Oakland Oceanic (ODAPS)
07:43AM 43.3107 171.2853 72° East 533 613 39,000  Level FlightAware Transoceanic
07:44AM 43.3448 171.4138 72° East 559 643 39,000  Level FlightAware Transoceanic
07:45AM 43.3927 171.6173 72° East 559 643 39,000  Level FlightAware Transoceanic
07:46AM 43.4402 171.8210 72° East 559 643 39,000  Level FlightAware Transoceanic
07:47AM 43.4874 172.0251 72° East 559 643 39,000  Level FlightAware Transoceanic
07:48AM 43.5362 172.2083 73° East 539 620 39,000  Level FlightAware Transoceanic
07:49AM 43.5826 172.4136 73° East 539 620 39,000  Level FlightAware Transoceanic
07:50AM 43.6286 172.6192 73° East 539 620 39,000  Level FlightAware Transoceanic
07:51AM 43.6743 172.8251 73° East 539 620 39,000  Level FlightAware Transoceanic
07:51AM 43.6667 172.8000 73° East 547 629 39,000  Level Oakland Oceanic (ODAPS)
07:52AM 43.7196 173.0313 73° East 539 620 39,000  Level FlightAware Transoceanic
07:52AM 43.7167 173.0667 73° East 551 634 39,000  Level Oakland Oceanic (ODAPS)
07:53AM 43.7646 173.2378 73° East 539 620 39,000  Level FlightAware Transoceanic
07:54AM 43.8091 173.4447 73° East 539 620 39,000  Level FlightAware Transoceanic
07:55AM 43.8533 173.6518 74° East 539 620 39,000  Level FlightAware Transoceanic
07:55AM 43.8333 173.6000 73° East 556 640 39,000  Level Oakland Oceanic (ODAPS)
07:56AM 43.8971 173.8593 74° East 539 620 39,000  Level FlightAware Transoceanic
07:57AM 43.9345 174.0461 74° East 547 629 39,000  Level FlightAware Transoceanic
07:58AM 43.9809 174.3041 74° East 551 634 39,000  Level FlightAware Transoceanic
07:59AM 44.0237 174.5114 74° East 551 634 39,000  Level FlightAware Transoceanic
08:00AM 44.0660 174.7190 74° East 551 634 39,000  Level FlightAware Transoceanic
08:00AM 44.0667 174.6833 74° East 556 640 39,000  Level Oakland Oceanic (ODAPS)
08:00AM 44.1000 174.8333 74° East 548 631 39,000  Level Oakland Oceanic (ODAPS)
08:01AM 44.0950 174.8591 74° East 556 640 39,000  Level FlightAware Transoceanic
08:02AM 44.1373 175.0700 74° East 556 640 39,000  Level FlightAware Transoceanic
08:03AM 44.1792 175.2812 75° East 556 640 39,000  Level FlightAware Transoceanic
08:04AM 44.2207 175.4928 75° East 556 640 39,000  Level FlightAware Transoceanic
08:05AM 44.2618 175.7046 75° East 556 640 39,000  Level FlightAware Transoceanic
08:06AM 44.3038 175.8949 75° East 556 640 39,000  Level FlightAware Transoceanic
08:06AM 44.3167 176.0167 75° East 554 638 39,000  Level Oakland Oceanic (ODAPS)
08:06AM 44.3333 176.0500 75° East 555 639 39,000  Level Oakland Oceanic (ODAPS)
08:07AM 44.3371 176.0585 75° East 548 631 39,000  Level FlightAware Transoceanic
08:08AM 44.3754 176.2637 75° East 548 631 39,000  Level FlightAware Transoceanic
08:09AM 44.4132 176.4691 76° East 548 631 39,000  Level FlightAware Transoceanic
08:10AM 44.4508 176.6747 76° East 548 631 39,000  Level FlightAware Transoceanic
08:11AM 44.4879 176.8807 76° East 548 631 39,000  Level FlightAware Transoceanic
08:12AM 44.5247 177.0869 76° East 548 631 39,000  Level FlightAware Transoceanic
08:13AM 44.5585 177.2874 76° East 555 639 39,000  Level FlightAware Transoceanic
08:14AM 44.5948 177.4946 76° East 555 639 39,000  Level FlightAware Transoceanic
08:15AM 44.6306 177.7020 76° East 555 639 39,000  Level FlightAware Transoceanic
08:16AM 44.6661 177.9097 77° East 555 639 39,000  Level FlightAware Transoceanic
08:17AM 44.7012 178.1176 77° East 555 639 39,000  Level FlightAware Transoceanic
08:18AM 44.7359 178.3258 77° East 555 639 39,000  Level FlightAware Transoceanic
08:19AM 44.7703 178.5342 77° East 555 639 39,000  Level FlightAware Transoceanic
08:20AM 44.8042 178.7429 77° East 555 639 39,000  Level FlightAware Transoceanic
08:20AM 44.8500 178.9833 78° East 576 663 39,000  Level Oakland Oceanic (ODAPS)
08:21AM 44.8378 178.9518 77° East 555 639 39,000  Level FlightAware Transoceanic
08:22AM 44.8710 179.1610 77° East 555 639 39,000  Level FlightAware Transoceanic
08:23AM 44.9038 179.3704 78° East 555 639 39,000  Level FlightAware Transoceanic
08:24AM 44.9363 179.5800 78° East 555 639 39,000  Level FlightAware Transoceanic
08:25AM 44.9683 179.7899 78° East 555 639 39,000  Level FlightAware Transoceanic
08:25AM 45.0000 180.0000 70° East 576 663 39,000  Level Oakland Oceanic (ODAPS)
08:26AM 45.0000 -180.0000 70° East 576 663 39,000  Level FlightAware Transoceanic
08:27AM 45.0537 -179.7860 71° East 576 663 39,000  Level FlightAware Transoceanic
08:28AM 45.1070 -179.5716 71° East 576 663 39,000  Level FlightAware Transoceanic
08:29AM 45.1599 -179.3568 71° East 576 663 39,000  Level FlightAware Transoceanic
08:30AM 45.2124 -179.1416 71° East 576 663 39,000  Level FlightAware Transoceanic
08:31AM 45.3162 -178.7099 71° East 576 663 39,000  Level FlightAware Transoceanic
08:32AM 45.3675 -178.4936 71° East 576 663 39,000  Level FlightAware Transoceanic
08:33AM 45.4184 -178.2768 72° East 576 663 39,000  Level FlightAware Transoceanic
08:34AM 45.4688 -178.0596 72° East 576 663 39,000  Level FlightAware Transoceanic
08:34AM 45.4833 -177.9833 72° East 586 674 39,000  Level Oakland Oceanic (ODAPS)
08:35AM 45.5189 -177.8420 72° East 576 663 39,000  Level FlightAware Transoceanic
08:36AM 45.5685 -177.6241 72° East 576 663 39,000  Level FlightAware Transoceanic
08:37AM 45.6177 -177.4058 72° East 576 663 39,000  Level FlightAware Transoceanic
08:38AM 45.6665 -177.1870 72° East 576 663 39,000  Level FlightAware Transoceanic
08:39AM 45.7149 -176.9680 73° East 576 663 39,000  Level FlightAware Transoceanic
08:40AM 45.7743 -176.6843 73° East 586 674 39,000  Level FlightAware Transoceanic
08:41AM 45.8213 -176.4665 73° East 586 674 39,000  Level FlightAware Transoceanic
08:42AM 45.8679 -176.2484 73° East 586 674 39,000  Level FlightAware Transoceanic
08:43AM 45.9141 -176.0298 73° East 586 674 39,000  Level FlightAware Transoceanic
08:44AM 45.9599 -175.8109 73° East 586 674 39,000  Level FlightAware Transoceanic
08:45AM 46.0053 -175.5916 73° East 586 674 39,000  Level FlightAware Transoceanic
08:46AM 46.0503 -175.3720 74° East 586 674 39,000  Level FlightAware Transoceanic
08:47AM 46.0948 -175.1521 74° East 586 674 39,000  Level FlightAware Transoceanic
08:48AM 46.1390 -174.9317 74° East 586 674 39,000  Level FlightAware Transoceanic
08:48AM 46.1500 -174.8667 74° East 595 685 39,000  Level Oakland Oceanic (ODAPS)
08:49AM 46.1826 -174.7111 74° East 586 674 39,000  Level FlightAware Transoceanic
08:50AM 46.2259 -174.4900 74° East 586 674 39,000  Level FlightAware Transoceanic
08:51AM 46.2687 -174.2686 74° East 586 674 39,000  Level FlightAware Transoceanic
08:52AM 46.3112 -174.0469 75° East 586 674 39,000  Level FlightAware Transoceanic
08:53AM 46.3531 -173.8249 75° East 586 674 39,000  Level FlightAware Transoceanic
08:54AM 46.4138 -173.4920 75° East 595 685 39,000  Level FlightAware Transoceanic
08:55AM 46.4562 -173.2616 75° East 595 685 39,000  Level FlightAware Transoceanic
08:56AM 46.4981 -173.0308 75° East 595 685 39,000  Level FlightAware Transoceanic
08:57AM 46.5395 -172.7997 75° East 595 685 39,000  Level FlightAware Transoceanic
08:58AM 46.5805 -172.5683 76° East 595 685 39,000  Level FlightAware Transoceanic
08:59AM 46.6210 -172.3365 76° East 595 685 39,000  Level FlightAware Transoceanic
09:00AM 46.6610 -172.1043 76° East 595 685 39,000  Level FlightAware Transoceanic
09:01AM 46.7006 -171.8718 76° East 595 685 39,000  Level FlightAware Transoceanic
09:02AM 46.7397 -171.6390 76° East 595 685 39,000  Level FlightAware Transoceanic
09:02AM 46.7333 -171.6500 76° East 587 676 39,000  Level Oakland Oceanic (ODAPS)
09:03AM 46.7783 -171.4059 76° East 595 685 39,000  Level FlightAware Transoceanic
09:04AM 46.8164 -171.1723 77° East 595 685 39,000  Level FlightAware Transoceanic
09:05AM 46.8541 -170.9385 77° East 595 685 39,000  Level FlightAware Transoceanic
09:06AM 46.8913 -170.7044 77° East 595 685 39,000  Level FlightAware Transoceanic
09:07AM 46.9280 -170.4699 77° East 595 685 39,000  Level FlightAware Transoceanic
09:08AM 46.9634 -170.2367 77° East 587 676 39,000  Level FlightAware Transoceanic
09:09AM 47.0000 -170.0000 78° East 587 676 39,000  Level FlightAware Transoceanic
09:09AM 47.0000 -170.0000 78° East 580 667 39,000  Level Oakland Oceanic (ODAPS)
09:10AM 47.0330 -169.7723 78° East 587 676 39,000  Level FlightAware Transoceanic
09:11AM 47.0656 -169.5443 78° East 587 676 39,000  Level FlightAware Transoceanic
09:12AM 47.0977 -169.3161 78° East 587 676 39,000  Level FlightAware Transoceanic
09:13AM 47.1293 -169.0876 79° East 587 676 39,000  Level FlightAware Transoceanic
09:14AM 47.1605 -168.8588 79° East 587 676 39,000  Level FlightAware Transoceanic
09:15AM 47.1913 -168.6297 79° East 580 667 39,000  Level FlightAware Transoceanic
09:16AM 47.2216 -168.4004 79° East 580 667 39,000  Level FlightAware Transoceanic
09:16AM 47.2167 -168.4500 79° East 577 664 39,000  Level Oakland Oceanic (ODAPS)
09:17AM 47.2514 -168.1708 79° East 580 667 39,000  Level FlightAware Transoceanic
09:18AM 47.2808 -167.9410 79° East 580 667 39,000  Level FlightAware Transoceanic
09:19AM 47.3097 -167.7109 80° East 580 667 39,000  Level FlightAware Transoceanic
09:20AM 47.3381 -167.4805 80° East 580 667 39,000  Level FlightAware Transoceanic
09:21AM 47.3661 -167.2499 80° East 580 667 39,000  Level FlightAware Transoceanic
09:22AM 47.3900 -167.0607 80° East 577 664 39,000  Level FlightAware Transoceanic
09:23AM 47.4173 -166.8283 80° East 577 664 39,000  Level FlightAware Transoceanic
09:24AM 47.4441 -166.5956 80° East 577 664 39,000  Level FlightAware Transoceanic
09:25AM 47.4704 -166.3627 81° East 577 664 39,000  Level FlightAware Transoceanic
09:26AM 47.4963 -166.1296 81° East 577 664 39,000  Level FlightAware Transoceanic
09:27AM 47.5216 -165.8962 81° East 577 664 39,000  Level FlightAware Transoceanic
09:28AM 47.5466 -165.6626 81° East 577 664 39,000  Level FlightAware Transoceanic
09:29AM 47.5710 -165.4288 81° East 577 664 39,000  Level FlightAware Transoceanic
09:30AM 47.5949 -165.1948 81° East 577 664 39,000  Level FlightAware Transoceanic
09:30AM 47.5833 -165.3333 81° East 564 649 39,000  Level Oakland Oceanic (ODAPS)
09:31AM 47.6184 -164.9606 82° East 577 664 39,000  Level FlightAware Transoceanic
09:32AM 47.6414 -164.7262 82° East 577 664 39,000  Level FlightAware Transoceanic
09:33AM 47.6639 -164.4915 82° East 577 664 39,000  Level FlightAware Transoceanic
09:34AM 47.6860 -164.2567 82° East 577 664 39,000  Level FlightAware Transoceanic
09:35AM 47.7075 -164.0217 82° East 577 664 39,000  Level FlightAware Transoceanic
09:36AM 47.7158 -163.9507 82° East 564 649 39,000  Level FlightAware Transoceanic
09:37AM 47.7363 -163.7195 83° East 564 649 39,000  Level FlightAware Transoceanic
09:38AM 47.7562 -163.4882 83° East 564 649 39,000  Level FlightAware Transoceanic
09:39AM 47.7758 -163.2568 83° East 564 649 39,000  Level FlightAware Transoceanic
09:40AM 47.7948 -163.0251 83° East 564 649 39,000  Level FlightAware Transoceanic
09:41AM 47.8134 -162.7933 83° East 564 649 39,000  Level FlightAware Transoceanic
09:42AM 47.8316 -162.5614 83° East 564 649 39,000  Level FlightAware Transoceanic
09:43AM 47.8492 -162.3292 84° East 564 649 39,000  Level FlightAware Transoceanic
09:43AM 47.8667 -162.1667 84° East 563 648 39,000  Level Oakland Oceanic (ODAPS)
09:44AM 47.8664 -162.0969 84° East 564 649 39,000  Level FlightAware Transoceanic
09:45AM 47.8831 -161.8645 84° East 564 649 39,000  Level FlightAware Transoceanic
09:46AM 47.8994 -161.6319 84° East 564 649 39,000  Level FlightAware Transoceanic
09:47AM 47.9152 -161.3992 84° East 564 649 39,000  Level FlightAware Transoceanic
09:48AM 47.9305 -161.1663 84° East 564 649 39,000  Level FlightAware Transoceanic
09:49AM 47.9453 -160.9333 85° East 564 649 39,000  Level FlightAware Transoceanic
09:50AM 47.9601 -160.7234 85° East 563 648 39,000  Level FlightAware Transoceanic
09:51AM 47.9739 -160.4824 85° East 563 648 39,000  Level FlightAware Transoceanic
09:52AM 47.9872 -160.2413 85° East 563 648 39,000  Level FlightAware Transoceanic
09:53AM 48.0000 -160.0000 103° East 563 648 39,000  Level FlightAware Transoceanic
09:53AM 48.0000 -160.0000 103° East 554 638 39,000  Level Oakland Oceanic (ODAPS)
09:54AM 47.9660 -159.7750 103° East 563 648 39,000  Level FlightAware Transoceanic
09:55AM 47.9315 -159.5504 103° East 563 648 39,000  Level FlightAware Transoceanic
09:56AM 47.8967 -159.3260 103° East 563 648 39,000  Level FlightAware Transoceanic
09:57AM 47.8613 -159.1019 103° East 563 648 39,000  Level FlightAware Transoceanic
09:57AM 47.8500 -159.0000 103° East 556 640 39,000  Level Oakland Oceanic (ODAPS)
09:58AM 47.8256 -158.8782 103° East 563 648 39,000  Level FlightAware Transoceanic
09:59AM 47.7894 -158.6547 104° East 554 638 39,000  Level FlightAware Transoceanic
10:00AM 47.7528 -158.4316 104° East 554 638 39,000  Level FlightAware Transoceanic
10:01AM 47.7157 -158.2088 104° East 554 638 39,000  Level FlightAware Transoceanic
10:02AM 47.6782 -157.9863 104° East 554 638 39,000  Level FlightAware Transoceanic
10:03AM 47.6403 -157.7641 104° East 554 638 39,000  Level FlightAware Transoceanic
10:04AM 47.6240 -157.6452 104° East 556 640 39,000  Level FlightAware Transoceanic
10:05AM 47.5848 -157.4206 105° East 556 640 39,000  Level FlightAware Transoceanic
10:06AM 47.5452 -157.1963 105° East 556 640 39,000  Level FlightAware Transoceanic
10:07AM 47.5051 -156.9723 105° East 556 640 39,000  Level FlightAware Transoceanic
10:08AM 47.4646 -156.7487 105° East 556 640 39,000  Level FlightAware Transoceanic
10:09AM 47.4236 -156.5254 105° East 556 640 39,000  Level FlightAware Transoceanic
10:10AM 47.3823 -156.3025 105° East 556 640 39,000  Level FlightAware Transoceanic
10:11AM 47.3404 -156.0800 106° East 556 640 39,000 600 Level FlightAware Transoceanic
10:11AM 47.3167 -155.9500 106° East 557 641 40,000  Climbing Oakland Oceanic (ODAPS)
10:12AM 47.2982 -155.8577 106° East 556 640 39,000 -780 Descending FlightAware Transoceanic
10:13AM 47.2555 -155.6359 106° East 556 640 39,000  Level FlightAware Transoceanic
10:14AM 47.2124 -155.4144 106° East 556 640 39,000  Level FlightAware Transoceanic
10:15AM 47.1689 -155.1932 106° East 556 640 39,000  Level FlightAware Transoceanic
10:16AM 47.1249 -154.9725 106° East 556 640 39,000 480 Level FlightAware Transoceanic
10:17AM 47.0607 -154.6509 107° East 557 641 40,000 480 Climbing FlightAware Transoceanic
10:18AM 47.0167 -154.4356 107° East 557 641 40,000  Level FlightAware Transoceanic
10:19AM 46.9722 -154.2207 107° East 557 641 40,000  Level FlightAware Transoceanic
10:20AM 46.9273 -154.0061 107° East 557 641 40,000  Level FlightAware Transoceanic
10:21AM 46.8820 -153.7919 107° East 557 641 40,000  Level FlightAware Transoceanic
10:22AM 46.8363 -153.5781 107° East 557 641 40,000  Level FlightAware Transoceanic
10:23AM 46.7902 -153.3646 108° East 557 641 40,000  Level FlightAware Transoceanic
10:24AM 46.7438 -153.1515 108° East 557 641 40,000  Level FlightAware Transoceanic
10:25AM 46.6969 -152.9387 108° East 557 641 40,000  Level FlightAware Transoceanic
10:25AM 46.7000 -152.9500 108° East 553 636 40,000  Level Oakland Oceanic (ODAPS)
10:26AM 46.6496 -152.7264 108° East 557 641 40,000  Level FlightAware Transoceanic
10:27AM 46.6020 -152.5144 108° East 557 641 40,000  Level FlightAware Transoceanic
10:28AM 46.5539 -152.3027 108° East 557 641 40,000  Level FlightAware Transoceanic
10:29AM 46.5055 -152.0915 109° East 557 641 40,000  Level FlightAware Transoceanic
10:30AM 46.4567 -151.8806 109° East 557 641 40,000  Level FlightAware Transoceanic
10:31AM 46.4093 -151.6765 109° East 553 636 40,000  Level FlightAware Transoceanic
10:32AM 46.3595 -151.4655 109° East 553 636 40,000  Level FlightAware Transoceanic
10:33AM 46.3093 -151.2550 109° East 553 636 40,000  Level FlightAware Transoceanic
10:34AM 46.2587 -151.0449 109° East 553 636 40,000  Level FlightAware Transoceanic
10:35AM 46.2077 -150.8351 109° East 553 636 40,000  Level FlightAware Transoceanic
10:36AM 46.1564 -150.6257 110° East 553 636 40,000  Level FlightAware Transoceanic
10:37AM 46.1046 -150.4168 110° East 553 636 40,000  Level FlightAware Transoceanic
10:38AM 46.0525 -150.2082 110° East 553 636 40,000  Level FlightAware Transoceanic
10:39AM 46.0000 -150.0000 109° East 553 636 40,000  Level FlightAware Transoceanic
10:39AM 46.0000 -150.0000 109° East 471 542 40,000  Level Oakland Oceanic (ODAPS)
10:39AM 46.0000 -150.0000 109° East 551 634 40,000  Level Oakland Oceanic (ODAPS)
10:40AM 45.9518 -149.8019 109° East 553 636 40,000  Level FlightAware Transoceanic
10:41AM 45.9031 -149.6042 110° East 553 636 40,000  Level FlightAware Transoceanic
10:42AM 45.8542 -149.4068 110° East 553 636 40,000  Level FlightAware Transoceanic
10:43AM 45.8049 -149.2098 110° East 553 636 40,000  Level FlightAware Transoceanic
10:44AM 45.7553 -149.0131 110° East 553 636 40,000  Level FlightAware Transoceanic
10:45AM 45.6936 -148.7707 110° East 551 634 40,000  Level FlightAware Transoceanic
10:46AM 45.6412 -148.5671 110° East 551 634 40,000  Level FlightAware Transoceanic
10:47AM 45.5885 -148.3639 110° East 551 634 40,000  Level FlightAware Transoceanic
10:48AM 45.5354 -148.1611 111° Southeast 551 634 40,000  Level FlightAware Transoceanic
10:49AM 45.4820 -147.9587 111° Southeast 551 634 40,000  Level FlightAware Transoceanic
10:50AM 45.4282 -147.7567 111° Southeast 551 634 40,000  Level FlightAware Transoceanic
10:51AM 45.3741 -147.5550 111° Southeast 551 634 40,000  Level FlightAware Transoceanic
10:52AM 45.3196 -147.3537 111° Southeast 551 634 40,000  Level FlightAware Transoceanic
10:53AM 45.2648 -147.1529 111° Southeast 551 634 40,000  Level FlightAware Transoceanic
10:53AM 45.2667 -147.1500 111° Southeast 557 641 40,000  Level Oakland Oceanic (ODAPS)
10:54AM 45.2096 -146.9524 111° Southeast 551 634 40,000  Level FlightAware Transoceanic
10:55AM 45.1540 -146.7523 112° Southeast 551 634 40,000  Level FlightAware Transoceanic
10:56AM 45.0981 -146.5526 112° Southeast 551 634 40,000  Level FlightAware Transoceanic
10:57AM 45.0419 -146.3533 112° Southeast 551 634 40,000  Level FlightAware Transoceanic
10:58AM 44.9853 -146.1544 112° Southeast 551 634 40,000  Level FlightAware Transoceanic
10:59AM 44.9204 -145.9204 112° Southeast 557 641 40,000  Level FlightAware Transoceanic
11:00AM 44.8614 -145.7169 112° Southeast 557 641 40,000  Level FlightAware Transoceanic
11:01AM 44.8021 -145.5138 112° Southeast 557 641 40,000  Level FlightAware Transoceanic
11:02AM 44.7424 -145.3112 113° Southeast 557 641 40,000  Level FlightAware Transoceanic
11:03AM 44.6823 -145.1089 113° Southeast 557 641 40,000  Level FlightAware Transoceanic
11:04AM 44.6219 -144.9071 113° Southeast 557 641 40,000  Level FlightAware Transoceanic
11:05AM 44.5611 -144.7057 113° Southeast 557 641 40,000  Level FlightAware Transoceanic
11:06AM 44.5000 -144.5048 113° Southeast 557 641 40,000  Level FlightAware Transoceanic
11:07AM 44.4385 -144.3042 113° Southeast 557 641 40,000  Level FlightAware Transoceanic
11:07AM 44.4667 -144.4000 113° Southeast 539 620 40,000  Level Oakland Oceanic (ODAPS)
11:08AM 44.3767 -144.1041 113° Southeast 557 641 40,000  Level FlightAware Transoceanic
11:09AM 44.3145 -143.9044 114° Southeast 557 641 40,000  Level FlightAware Transoceanic
11:10AM 44.2520 -143.7051 114° Southeast 557 641 40,000  Level FlightAware Transoceanic
11:11AM 44.1891 -143.5063 114° Southeast 557 641 40,000  Level FlightAware Transoceanic
11:12AM 44.1259 -143.3079 114° Southeast 557 641 40,000  Level FlightAware Transoceanic
11:13AM 44.1005 -143.2314 114° Southeast 539 620 40,000  Level FlightAware Transoceanic
11:14AM 44.0383 -143.0381 114° Southeast 539 620 40,000  Level FlightAware Transoceanic
11:15AM 43.9758 -142.8451 114° Southeast 539 620 40,000  Level FlightAware Transoceanic
11:16AM 43.9129 -142.6526 114° Southeast 539 620 40,000  Level FlightAware Transoceanic
11:17AM 43.8498 -142.4605 115° Southeast 539 620 40,000  Level FlightAware Transoceanic
11:18AM 43.7863 -142.2688 115° Southeast 539 620 40,000  Level FlightAware Transoceanic
11:19AM 43.7225 -142.0774 115° Southeast 539 620 40,000  Level FlightAware Transoceanic
11:20AM 43.6584 -141.8865 115° Southeast 539 620 40,000  Level FlightAware Transoceanic
11:20AM 43.6333 -141.8000 115° Southeast 522 601 40,000  Level Oakland Oceanic (ODAPS)
11:21AM 43.5939 -141.6960 115° Southeast 539 620 40,000  Level FlightAware Transoceanic
11:22AM 43.5292 -141.5060 115° Southeast 539 620 40,000  Level FlightAware Transoceanic
11:23AM 43.4641 -141.3163 115° Southeast 539 620 40,000  Level FlightAware Transoceanic
11:24AM 43.3988 -141.1270 116° Southeast 539 620 40,000  Level FlightAware Transoceanic
11:25AM 43.3331 -140.9382 116° Southeast 539 620 40,000  Level FlightAware Transoceanic
11:26AM 43.2671 -140.7497 116° Southeast 539 620 40,000  Level FlightAware Transoceanic
11:27AM 43.2567 -140.7155 116° Southeast 522 601 40,000  Level FlightAware Transoceanic
11:28AM 43.1930 -140.5361 116° Southeast 522 601 40,000  Level FlightAware Transoceanic
11:29AM 43.1289 -140.3570 116° Southeast 522 601 40,000  Level FlightAware Transoceanic
11:30AM 43.0646 -140.1783 116° Southeast 522 601 40,000  Level FlightAware Transoceanic
11:31AM 43.0000 -140.0000 108° East 522 601 40,000  Level FlightAware Transoceanic
11:31AM 43.0000 -140.0000 108° East 516 594 40,000  Level Oakland Oceanic (ODAPS)
11:32AM 42.9558 -139.8199 109° East 522 601 40,000  Level FlightAware Transoceanic
11:33AM 42.9114 -139.6400 109° East 522 601 40,000  Level FlightAware Transoceanic
11:34AM 42.8667 -139.4603 109° East 522 601 40,000  Level FlightAware Transoceanic
11:34AM 42.8333 -139.3333 109° East 509 586 40,000  Level Oakland Oceanic (ODAPS)
11:35AM 42.8217 -139.2810 109° East 522 601 40,000  Level FlightAware Transoceanic
11:36AM 42.7765 -139.1019 109° East 522 601 40,000  Level FlightAware Transoceanic
11:37AM 42.7211 -138.8848 109° East 516 594 40,000  Level FlightAware Transoceanic
11:38AM 42.6736 -138.6999 109° East 516 594 40,000  Level FlightAware Transoceanic
11:39AM 42.6258 -138.5153 109° East 516 594 40,000  Level FlightAware Transoceanic
11:40AM 42.5776 -138.3309 110° East 516 594 40,000  Level FlightAware Transoceanic
11:41AM 42.5514 -138.2363 110° East 509 586 40,000  Level FlightAware Transoceanic
11:42AM 42.5034 -138.0544 110° East 509 586 40,000  Level FlightAware Transoceanic
11:43AM 42.4551 -137.8728 110° East 509 586 40,000  Level FlightAware Transoceanic
11:44AM 42.4065 -137.6915 110° East 509 586 40,000  Level FlightAware Transoceanic
11:45AM 42.3576 -137.5105 110° East 509 586 40,000  Level FlightAware Transoceanic
11:46AM 42.3085 -137.3297 110° East 509 586 40,000  Level FlightAware Transoceanic
11:47AM 42.2591 -137.1492 110° East 509 586 40,000  Level FlightAware Transoceanic
11:48AM 42.2093 -136.9691 110° East 509 586 40,000 540 Level FlightAware Transoceanic
11:48AM 42.1667 -136.8333 111° Southeast 509 586 41,000  Climbing Oakland Oceanic (ODAPS)
11:49AM 42.1594 -136.7892 111° Southeast 509 586 40,000 -840 Descending FlightAware Transoceanic
11:50AM 42.1091 -136.6095 111° Southeast 509 586 40,000  Level FlightAware Transoceanic
11:51AM 42.0585 -136.4302 111° Southeast 509 586 40,000  Level FlightAware Transoceanic
11:52AM 42.0077 -136.2512 111° Southeast 509 586 40,000  Level FlightAware Transoceanic
11:53AM 41.9566 -136.0724 111° Southeast 509 586 40,000  Level FlightAware Transoceanic
11:54AM 41.9052 -135.8939 111° Southeast 509 586 40,000 480 Level FlightAware Transoceanic
11:55AM 41.8171 -135.6051 111° Southeast 509 586 41,000 480 Climbing FlightAware Transoceanic
11:56AM 41.7661 -135.4308 111° Southeast 509 586 41,000  Level FlightAware Transoceanic
11:57AM 41.7148 -135.2567 112° Southeast 509 586 41,000  Level FlightAware Transoceanic
11:58AM 41.6633 -135.0829 112° Southeast 509 586 41,000  Level FlightAware Transoceanic
11:59AM 41.6115 -134.9094 112° Southeast 509 586 41,000  Level FlightAware Transoceanic
12:00PM 41.5595 -134.7361 112° Southeast 509 586 41,000  Level FlightAware Transoceanic
12:01PM 41.5072 -134.5632 112° Southeast 509 586 41,000  Level FlightAware Transoceanic
12:02PM 41.4546 -134.3905 112° Southeast 509 586 41,000  Level FlightAware Transoceanic
12:02PM 41.4500 -134.3833 112° Southeast 507 583 41,000  Level Oakland Oceanic (ODAPS)
12:03PM 41.4018 -134.2181 112° Southeast 509 586 41,000  Level FlightAware Transoceanic
12:04PM 41.3487 -134.0459 112° Southeast 509 586 41,000  Level FlightAware Transoceanic
12:05PM 41.2954 -133.8741 113° Southeast 509 586 41,000  Level FlightAware Transoceanic
12:06PM 41.2418 -133.7025 113° Southeast 509 586 41,000  Level FlightAware Transoceanic
12:07PM 41.1879 -133.5313 113° Southeast 509 586 41,000  Level FlightAware Transoceanic
12:08PM 41.1302 -133.3549 113° Southeast 507 583 41,000  Level FlightAware Transoceanic
12:09PM 41.0760 -133.1844 113° Southeast 507 583 41,000  Level FlightAware Transoceanic
12:10PM 41.0216 -133.0143 113° Southeast 507 583 41,000  Level FlightAware Transoceanic
12:11PM 40.9669 -132.8444 113° Southeast 507 583 41,000  Level FlightAware Transoceanic
12:12PM 40.9120 -132.6748 113° Southeast 507 583 41,000  Level FlightAware Transoceanic
12:13PM 40.8568 -132.5055 113° Southeast 507 583 41,000  Level FlightAware Transoceanic
12:14PM 40.8014 -132.3365 113° Southeast 507 583 41,000  Level FlightAware Transoceanic
12:15PM 40.7457 -132.1678 114° Southeast 507 583 41,000  Level FlightAware Transoceanic
12:16PM 40.6898 -131.9993 114° Southeast 507 583 41,000  Level FlightAware Transoceanic
12:16PM 40.7000 -132.0333 114° Southeast 501 577 41,000  Level Oakland Oceanic (ODAPS)
12:17PM 40.6337 -131.8311 114° Southeast 507 583 41,000  Level FlightAware Transoceanic
12:18PM 40.5773 -131.6633 114° Southeast 507 583 41,000  Level FlightAware Transoceanic
12:19PM 40.5206 -131.4957 114° Southeast 507 583 41,000  Level FlightAware Transoceanic
12:20PM 40.4637 -131.3283 114° Southeast 507 583 41,000  Level FlightAware Transoceanic
12:21PM 40.4066 -131.1613 114° Southeast 507 583 41,000  Level FlightAware Transoceanic
12:22PM 40.3545 -131.0114 114° Southeast 501 577 41,000  Level FlightAware Transoceanic
12:23PM 40.2960 -130.8421 114° Southeast 501 577 41,000  Level FlightAware Transoceanic
12:24PM 40.2373 -130.6731 115° Southeast 501 577 41,000  Level FlightAware Transoceanic
12:25PM 40.1783 -130.5044 115° Southeast 501 577 41,000  Level FlightAware Transoceanic
12:26PM 40.1191 -130.3360 115° Southeast 501 577 41,000  Level FlightAware Transoceanic
12:27PM 40.0597 -130.1678 115° Southeast 501 577 41,000  Level FlightAware Transoceanic
12:28PM 40.0000 -130.0000 122° Southeast 501 577 41,000  Level FlightAware Transoceanic
12:28PM 40.0000 -130.0000 122° Southeast 490 564 41,000  Level Oakland Oceanic (ODAPS)
12:29PM 39.9288 -129.8542 123° Southeast 501 577 41,000  Level FlightAware Transoceanic
12:30PM 39.8573 -129.7086 123° Southeast 501 577 41,000  Level FlightAware Transoceanic
12:30PM 39.8833 -129.7667 123° Southeast 490 564 41,000  Level Oakland Oceanic (ODAPS)
12:31PM 39.7857 -129.5634 123° Southeast 501 577 41,000  Level FlightAware Transoceanic
12:32PM 39.7139 -129.4184 123° Southeast 501 577 41,000  Level FlightAware Transoceanic
12:33PM 39.6420 -129.2738 123° Southeast 501 577 41,000  Level FlightAware Transoceanic
12:34PM 39.5698 -129.1294 123° Southeast 501 577 41,000  Level FlightAware Transoceanic
12:35PM 39.5481 -129.0862 123° Southeast 490 564 41,000  Level FlightAware Transoceanic
12:36PM 39.4431 -128.8809 123° Southeast 490 564 41,000  Level FlightAware Transoceanic
12:37PM 39.3690 -128.7344 123° Southeast 490 564 41,000  Level FlightAware Transoceanic
12:38PM 39.2948 -128.5882 123° Southeast 490 564 41,000  Level FlightAware Transoceanic
12:39PM 39.2204 -128.4422 123° Southeast 490 564 41,000  Level FlightAware Transoceanic
12:40PM 39.1459 -128.2966 124° Southeast 490 564 41,000  Level FlightAware Transoceanic
12:41PM 39.0711 -128.1513 124° Southeast 490 564 41,000  Level FlightAware Transoceanic
12:42PM 38.9962 -128.0063 124° Southeast 490 564 41,000  Level FlightAware Transoceanic
12:43PM 38.9211 -127.8617 124° Southeast 490 564 41,000  Level FlightAware Transoceanic
12:44PM 38.8458 -127.7173 124° Southeast 490 564 41,000  Level FlightAware Transoceanic
12:44PM 38.8500 -127.7167 124° Southeast 490 564 41,000  Level Oakland Oceanic (ODAPS)
12:45PM 38.7703 -127.5732 124° Southeast 490 564 41,000  Level FlightAware Transoceanic
12:46PM 38.6947 -127.4295 124° Southeast 490 564 41,000  Level FlightAware Transoceanic
12:47PM 38.6188 -127.2860 124° Southeast 490 564 41,000  Level FlightAware Transoceanic
12:48PM 38.5428 -127.1429 124° Southeast 490 564 41,000  Level FlightAware Transoceanic
12:49PM 38.4667 -127.0000 111° Southeast 490 564 41,000  Level FlightAware Transoceanic
12:50PM 38.4158 -126.8324 111° Southeast 490 564 41,000  Level FlightAware Transoceanic
12:51PM 38.3646 -126.6650 111° Southeast 490 564 41,000  Level FlightAware Transoceanic
12:51PM 38.3470 -126.6430 111° Southeast 495 570 41,000  Level FlightAware
12:51PM 38.3210 -126.5720 115° Southeast 495 570 41,000  Level FlightAware
12:52PM 38.2810 -126.4580 114° Southeast 495 570 41,000  Level FlightAware
12:53PM 38.2290 -126.3180 115° Southeast 497 572 41,000  Level FlightAware
12:53PM 38.2040 -126.2520 116° Southeast 496 571 41,000  Level FlightAware
12:54PM 38.1660 -126.1480 115° Southeast 495 570 41,000  Level FlightAware
12:54PM 38.1300 -126.0520 115° Southeast 494 568 41,000  Level FlightAware
12:55PM 38.0980 -125.9650 115° Southeast 494 568 41,000  Level FlightAware
12:56PM 38.0630 -125.8720 116° Southeast 495 570 41,000  Level FlightAware
12:56PM 38.0260 -125.7740 116° Southeast 499 574 41,000  Level FlightAware
12:57PM 37.9950 -125.6910 115° Southeast 501 577 41,000  Level FlightAware
12:57PM 37.9610 -125.5990 115° Southeast 501 577 41,000  Level FlightAware
12:58PM 37.9240 -125.5010 116° Southeast 502 578 41,000  Level FlightAware
12:59PM 37.8900 -125.4110 116° Southeast 503 579 41,000  Level FlightAware
12:59PM 37.8530 -125.3120 115° Southeast 503 579 41,000  Level FlightAware
01:00PM 37.8200 -125.2270 116° Southeast 503 579 41,000  Level FlightAware
01:00PM 37.7820 -125.1270 116° Southeast 505 581 41,000  Level FlightAware
01:01PM 37.7460 -125.0320 116° Southeast 506 582 41,000  Level FlightAware
01:01PM 37.7170 -124.9560 116° Southeast 507 583 41,000  Level FlightAware
01:02PM 37.6740 -124.8450 116° Southeast 508 585 41,000  Level FlightAware
01:03PM 37.6400 -124.7580 116° Southeast 507 583 41,000  Level FlightAware
01:03PM 37.6050 -124.6660 116° Southeast 507 583 41,000  Level FlightAware
01:04PM 37.5680 -124.5710 116° Southeast 506 582 41,000  Level FlightAware
01:04PM 37.5350 -124.4880 117° Southeast 503 579 41,000  Level FlightAware
01:05PM 37.4940 -124.3830 116° Southeast 501 577 41,000  Level FlightAware
01:06PM 37.4600 -124.2960 116° Southeast 500 575 41,000  Level FlightAware
01:06PM 37.4240 -124.2040 116° Southeast 500 575 41,000  Level FlightAware
01:07PM 37.3890 -124.1140 116° Southeast 502 578 41,000  Level FlightAware
01:07PM 37.3500 -124.0170 117° Southeast 503 579 41,000  Level FlightAware
01:08PM 37.3180 -123.9340 116° Southeast 503 579 41,000  Level FlightAware
01:09PM 37.2790 -123.8380 117° Southeast 500 575 41,000  Level FlightAware
01:09PM 37.2410 -123.7430 117° Southeast 501 577 41,000  Level FlightAware
01:10PM 37.2070 -123.6560 116° Southeast 499 574 41,000  Level FlightAware
01:10PM 37.1690 -123.5620 117° Southeast 499 574 41,000  Level FlightAware
01:11PM 37.1360 -123.4790 116° Southeast 499 574 41,000  Level FlightAware
01:11PM 37.1070 -123.4080 117° Southeast 499 574 41,000  Level FlightAware
01:12PM 37.0610 -123.2940 117° Southeast 498 573 41,000  Level FlightAware
01:13PM 37.0260 -123.2070 117° Southeast 497 572 41,000  Level FlightAware
01:13PM 36.9900 -123.1200 117° Southeast 494 568 41,000  Level FlightAware
01:14PM 36.9590 -123.0430 117° Southeast 495 570 41,000  Level FlightAware
01:14PM 36.9160 -122.9370 117° Southeast 495 570 41,000  Level FlightAware
01:15PM 36.8800 -122.8500 117° Southeast 498 573 41,000  Level FlightAware
01:16PM 36.8400 -122.7530 117° Southeast 497 572 41,000  Level FlightAware
01:16PM 36.8060 -122.6720 118° Southeast 497 572 41,000  Level FlightAware
01:17PM 36.7710 -122.5860 117° Southeast 499 574 41,000  Level FlightAware
01:17PM 36.7410 -122.5140 117° Southeast 499 574 41,000  Level FlightAware
01:18PM 36.7040 -122.4240 117° Southeast 499 574 41,000  Level FlightAware
01:18PM 36.6650 -122.3310 118° Southeast 497 572 41,000  Level FlightAware
01:19PM 36.6260 -122.2380 118° Southeast 496 571 41,000  Level FlightAware
01:19PM 36.6076 -122.1940 118° Southeast 496 571 41,000  Level FlightAware ADS-B
01:20PM 36.5560 -122.0710 118° Southeast 496 571 41,000  Level FlightAware
01:21PM 36.5170 -121.9780 118° Southeast 495 570 41,000  Level FlightAware
01:21PM 36.4820 -121.8970 118° Southeast 493 567 41,000  Level FlightAware
01:22PM 36.4460 -121.8100 117° Southeast 491 565 41,000  Level FlightAware
01:22PM 36.4060 -121.7170 118° Southeast 492 566 41,000  Level FlightAware
01:23PM 36.3700 -121.6310 117° Southeast 491 565 41,000  Level FlightAware
01:24PM 36.3320 -121.5420 118° Southeast 492 566 41,000  Level FlightAware
01:24PM 36.2930 -121.4510 118° Southeast 492 566 41,000  Level FlightAware
01:25PM 36.2600 -121.3740 118° Southeast 490 564 41,000  Level FlightAware
01:25PM 36.2240 -121.2910 118° Southeast 488 562 41,000  Level FlightAware
01:26PM 36.1980 -121.2310 118° Southeast 488 562 41,000  Level FlightAware ADS-B
01:26PM 36.1640 -121.1520 118° Southeast 489 563 41,000  Level FlightAware ADS-B
01:27PM 36.1149 -121.0390 118° Southeast 490 564 41,000  Level FlightAware ADS-B
01:28PM 36.0730 -120.9430 118° Southeast 490 564 41,000 -420 Level FlightAware
01:28PM 36.0350 -120.8560 118° Southeast 489 563 40,500 -900 Descending FlightAware
01:29PM 36.0060 -120.7880 118° Southeast 485 558 40,100 -960 Descending FlightAware
01:29PM 35.9590 -120.6810 118° Southeast 478 550 39,400 -960 Descending FlightAware
01:30PM 35.9230 -120.6000 119° Southeast 474 545 38,900 -900 Descending FlightAware
01:31PM 35.8870 -120.5180 118° Southeast 469 540 38,400 -780 Descending FlightAware
01:31PM 35.8510 -120.4380 119° Southeast 465 535 38,000 -360 Descending FlightAware
01:32PM 35.8130 -120.3520 119° Southeast 463 533 38,000  Level FlightAware
01:32PM 35.7710 -120.2560 118° Southeast 464 534 38,000 -780 Level FlightAware
01:33PM 35.7380 -120.1840 119° Southeast 467 537 37,100 -900 Descending FlightAware
01:34PM 35.7010 -120.1000 118° Southeast 451 519 37,000 -120 Descending FlightAware
01:34PM 35.6640 -120.0170 119° Southeast 427 491 37,000  Level FlightAware
01:35PM 35.6170 -119.9530 132° Southeast 409 471 37,000 -720 Level FlightAware
01:36PM 35.5540 -119.8980 145° Southeast 393 452 36,100 -1,200 Descending FlightAware
01:36PM 35.5040 -119.8550 145° Southeast 395 455 35,400 -1,320 Descending FlightAware
01:37PM 35.4490 -119.8070 145° Southeast 390 449 34,600 -1,380 Descending FlightAware
01:37PM 35.3870 -119.7540 145° Southeast 385 443 33,700 -2,340 Descending FlightAware
01:38PM 35.3380 -119.7120 145° Southeast 411 473 31,900 -3,600 Descending FlightAware
01:38PM 35.2870 -119.6680 145° Southeast 436 502 29,900 -2,760 Descending FlightAware
01:39PM 35.2290 -119.6180 145° Southeast 433 498 28,800 -1,680 Descending FlightAware
01:40PM 35.1670 -119.5660 146° Southeast 423 487 27,900 -1,500 Descending FlightAware
01:40PM 35.1060 -119.5130 145° Southeast 412 474 26,900 -1,500 Descending FlightAware
01:41PM 35.0600 -119.4740 145° Southeast 399 459 26,200 -1,380 Descending FlightAware
01:41PM 35.0050 -119.4270 145° Southeast 398 458 25,400 -1,380 Descending FlightAware
01:42PM 34.9500 -119.3800 145° Southeast 390 449 24,500 -1,380 Descending FlightAware
01:43PM 34.8820 -119.3230 145° Southeast 374 430 23,500 -1,380 Descending FlightAware
01:43PM 34.8280 -119.2770 145° Southeast 375 432 22,700 -1,380 Descending FlightAware
01:44PM 34.7730 -119.2300 145° Southeast 369 425 21,800 -1,380 Descending FlightAware
01:45PM 34.7240 -119.1900 146° Southeast 358 412 21,000 -1,380 Descending FlightAware
01:45PM 34.6740 -119.1480 145° Southeast 353 406 20,200 -1,380 Descending FlightAware
01:46PM 34.6180 -119.1000 145° Southeast 352 405 19,300 -1,260 Descending FlightAware
01:47PM 34.5740 -119.0630 145° Southeast 348 400 18,600 -1,320 Descending FlightAware
01:47PM 34.5250 -119.0220 145° Southeast 336 387 17,800 -1,320 Descending FlightAware
01:48PM 34.4820 -118.9860 145° Southeast 338 389 17,100 -1,440 Descending FlightAware
01:48PM 34.4310 -118.9430 145° Southeast 380 437 16,200 -1,560 Descending FlightAware
01:49PM 34.3790 -118.9000 146° Southeast 373 429 15,300 -1,440 Descending FlightAware
01:49PM 34.3260 -118.8700 155° Southeast 352 405 14,500 -1,440 Descending FlightAware
01:50PM 34.2620 -118.8460 163° South 337 388 13,500 -1,440 Descending FlightAware
01:51PM 34.2080 -118.8270 164° South 334 384 12,700 -1,380 Descending FlightAware
01:51PM 34.1580 -118.8080 163° South 324 373 11,900 -1,140 Descending FlightAware
01:52PM 34.1100 -118.7900 163° South 306 352 11,400 -900 Descending FlightAware
01:52PM 34.0620 -118.7720 163° South 285 328 10,900 -720 Descending FlightAware
01:53PM 34.0470 -118.7560 139° Southeast 290 334 10,800 -600 Descending FlightAware
01:53PM 34.0370 -118.7340 119° Southeast 293 337 10,600 -840 Descending FlightAware
01:53PM 34.0310 -118.6850 98° East 296 341 10,200 -1,020 Descending FlightAware
01:54PM 34.0280 -118.6450 95° East 294 338 9,700 -1,320 Descending FlightAware
01:54PM 34.0250 -118.6080 96° East 292 336 9,200 -1,380 Descending FlightAware
01:54PM 34.0220 -118.5840 99° East 290 334 8,900 -1,080 Descending FlightAware
01:55PM 34.0190 -118.5450 95° East 288 331 8,500 -1,200 Descending FlightAware
01:55PM 34.0150 -118.5120 98° East 287 330 8,000 -1,380 Descending FlightAware
01:56PM 34.0130 -118.4810 94° East 285 328 7,600 -1,080 Descending FlightAware
01:56PM 34.0110 -118.4600 97° East 286 329 7,400 -1,200 Descending FlightAware
01:56PM 34.0150 -118.4060 85° East 287 330 6,700 -1,260 Descending FlightAware
01:57PM 34.0190 -118.3770 81° East 285 328 6,300 -1,080 Descending FlightAware
01:57PM 34.0230 -118.3440 82° East 279 321 6,000 -1,020 Descending FlightAware
01:57PM 34.0260 -118.3250 79° East 274 315 5,600 -1,020 Descending FlightAware
01:58PM 34.0320 -118.2700 82° East 268 308 5,200 -840 Descending FlightAware
01:58PM 34.0360 -118.2400 81° East 261 300 5,000 -360 Descending FlightAware
01:58PM 34.0380 -118.2190 83° East 243 280 5,000  Level FlightAware
01:59PM 34.0320 -118.1960 107° East 221 254 5,000 -240 Level FlightAware
01:59PM 34.0270 -118.1900 135° Southeast 212 244 4,900 -300 Descending FlightAware
01:59PM 34.0160 -118.1850 159° South 210 242 4,900 -360 Level FlightAware
01:59PM 34.0120 -118.1840 168° South 210 242 4,800 -840 Descending FlightAware
01:59PM 34.0010 -118.1830 176° South 210 242 4,700 -720 Descending FlightAware
02:00PM 33.9840 -118.1910 201° Southwest 210 242 4,500 -720 Descending FlightAware
02:00PM 33.9810 -118.1940 220° Southwest 209 241 4,400 -600 Descending FlightAware
02:00PM 33.9730 -118.2080 235° Southwest 204 235 4,300 -900 Descending FlightAware
02:00PM 33.9610 -118.2280 234° Southwest 195 224 3,900 -1,500 Descending FlightAware
02:01PM 33.9520 -118.2480 242° Southwest 193 222 3,300 -2,100 Descending FlightAware
02:01PM 33.9490 -118.2680 260° West 192 221 2,500 -1,620 Descending FlightAware
02:01PM 33.9470 -118.2910 264° West 161 185 2,200 -1,080 Descending FlightAware
02:02PM 33.9450 -118.3080 262° West 156 180 1,800 -1,200 Descending FlightAware
02:02PM 33.9430 -118.3250 262° West 148 170 1,400 -1,380 Descending FlightAware
02:02PM 33.9420 -118.3420 266° West 149 171 900 -1,200 Descending FlightAware
02:03PM 33.9400 -118.3610 263° West 144 166 500 -960 Descending FlightAware
02:03PM 33.9380 -118.3770 261° West 138 159 200 -780 Descending FlightAware
02:03PM 33.9370 -118.3850 261° West 137 158 100 -180 Descending FlightAware
02:04PM 33.9350 -118.4020 262° West 137 158 100  Level FlightAware